sensor_id;sensor_type;location;lat;lon;timestamp;P1;durP1;ratioP1;P2;durP2;ratioP2
8640;SDS011;4358;42.100;25.222;2023-08-21T00:00:41;7.53;;;6.83;;
8640;SDS011;4358;42.100;25.222;2023-08-21T00:03:08;9.90;;;8.90;;
8640;SDS011;4358;42.100;25.222;2023-08-21T00:05:34;17.67;;;13.67;;
8640;SDS011;4358;42.100;25.222;2023-08-21T00:08:01;21.20;;;15.93;;
8640;SDS011;4358;42.100;25.222;2023-08-21T00:10:29;16.03;;;11.17;;
8640;SDS011;4358;42.100;25.222;2023-08-21T00:12:58;11.87;;;9.17;;
8640;SDS011;4358;42.100;25.222;2023-08-21T00:15:25;7.70;;;6.83;;
8640;SDS011;4358;42.100;25.222;2023-08-21T00:17:51;8.90;;;6.10;;
8640;SDS011;4358;42.100;25.222;2023-08-21T00:20:18;6.73;;;5.90;;
8640;SDS011;4358;42.100;25.222;2023-08-21T00:22:45;6.70;;;6.00;;
8640;SDS011;4358;42.100;25.222;2023-08-21T00:25:12;7.47;;;6.73;;
8640;SDS011;4358;42.100;25.222;2023-08-21T00:27:38;9.73;;;6.17;;
8640;SDS011;4358;42.100;25.222;2023-08-21T00:30:07;7.47;;;5.63;;
8640;SDS011;4358;42.100;25.222;2023-08-21T00:32:35;8.57;;;6.43;;
8640;SDS011;4358;42.100;25.222;2023-08-21T00:35:02;7.77;;;6.70;;
8640;SDS011;4358;42.100;25.222;2023-08-21T00:37:29;6.63;;;6.03;;
8640;SDS011;4358;42.100;25.222;2023-08-21T00:39:56;6.50;;;5.80;;
8640;SDS011;4358;42.100;25.222;2023-08-21T00:42:22;12.17;;;10.33;;
8640;SDS011;4358;42.100;25.222;2023-08-21T00:44:49;14.43;;;12.23;;
8640;SDS011;4358;42.100;25.222;2023-08-21T00:47:18;18.87;;;14.90;;
8640;SDS011;4358;42.100;25.222;2023-08-21T00:49:45;23.10;;;14.57;;
8640;SDS011;4358;42.100;25.222;2023-08-21T00:52:12;20.80;;;16.87;;
8640;SDS011;4358;42.100;25.222;2023-08-21T00:54:41;26.03;;;18.23;;
8640;SDS011;4358;42.100;25.222;2023-08-21T00:57:10;14.17;;;12.63;;
8640;SDS011;4358;42.100;25.222;2023-08-21T00:59:36;15.40;;;11.87;;
8640;SDS011;4358;42.100;25.222;2023-08-21T01:02:04;13.47;;;9.90;;
8640;SDS011;4358;42.100;25.222;2023-08-21T01:04:32;8.27;;;7.40;;
8640;SDS011;4358;42.100;25.222;2023-08-21T01:06:59;12.10;;;6.90;;
8640;SDS011;4358;42.100;25.222;2023-08-21T01:09:27;8.33;;;6.40;;
8640;SDS011;4358;42.100;25.222;2023-08-21T01:12:02;7.87;;;6.70;;
8640;SDS011;4358;42.100;25.222;2023-08-21T01:14:36;7.03;;;6.33;;
8640;SDS011;4358;42.100;25.222;2023-08-21T01:17:14;11.43;;;10.17;;
8640;SDS011;4358;42.100;25.222;2023-08-21T01:19:46;17.67;;;12.67;;
8640;SDS011;4358;42.100;25.222;2023-08-21T01:22:15;20.07;;;15.60;;
8640;SDS011;4358;42.100;25.222;2023-08-21T01:24:43;16.73;;;14.10;;
8640;SDS011;4358;42.100;25.222;2023-08-21T01:27:09;15.23;;;10.20;;
8640;SDS011;4358;42.100;25.222;2023-08-21T01:29:38;11.60;;;8.07;;
8640;SDS011;4358;42.100;25.222;2023-08-21T01:32:06;10.67;;;7.93;;
8640;SDS011;4358;42.100;25.222;2023-08-21T01:34:36;13.17;;;7.67;;
8640;SDS011;4358;42.100;25.222;2023-08-21T01:37:05;10.93;;;6.50;;
8640;SDS011;4358;42.100;25.222;2023-08-21T01:39:32;7.47;;;6.43;;
8640;SDS011;4358;42.100;25.222;2023-08-21T01:42:01;12.80;;;7.43;;
8640;SDS011;4358;42.100;25.222;2023-08-21T01:44:28;10.70;;;6.97;;
8640;SDS011;4358;42.100;25.222;2023-08-21T01:46:54;8.03;;;7.03;;
8640;SDS011;4358;42.100;25.222;2023-08-21T01:49:21;14.80;;;7.20;;
8640;SDS011;4358;42.100;25.222;2023-08-21T01:51:48;8.43;;;7.07;;
8640;SDS011;4358;42.100;25.222;2023-08-21T01:54:15;8.87;;;7.20;;
8640;SDS011;4358;42.100;25.222;2023-08-21T01:56:42;7.40;;;6.60;;
8640;SDS011;4358;42.100;25.222;2023-08-21T01:59:10;7.40;;;6.43;;
8640;SDS011;4358;42.100;25.222;2023-08-21T02:01:36;9.87;;;6.50;;
8640;SDS011;4358;42.100;25.222;2023-08-21T02:04:03;7.00;;;6.30;;
8640;SDS011;4358;42.100;25.222;2023-08-21T02:06:30;6.90;;;6.20;;
8640;SDS011;4358;42.100;25.222;2023-08-21T02:08:57;6.60;;;6.00;;
8640;SDS011;4358;42.100;25.222;2023-08-21T02:11:24;8.37;;;6.30;;
8640;SDS011;4358;42.100;25.222;2023-08-21T02:13:50;8.67;;;5.97;;
8640;SDS011;4358;42.100;25.222;2023-08-21T02:16:18;7.93;;;6.87;;
8640;SDS011;4358;42.100;25.222;2023-08-21T02:18:47;6.77;;;6.10;;
8640;SDS011;4358;42.100;25.222;2023-08-21T02:21:13;7.77;;;6.10;;
8640;SDS011;4358;42.100;25.222;2023-08-21T02:23:40;7.83;;;6.43;;
8640;SDS011;4358;42.100;25.222;2023-08-21T02:26:07;13.60;;;10.00;;
8640;SDS011;4358;42.100;25.222;2023-08-21T02:28:34;14.83;;;12.70;;
8640;SDS011;4358;42.100;25.222;2023-08-21T02:31:00;15.67;;;13.43;;
8640;SDS011;4358;42.100;25.222;2023-08-21T02:33:29;15.07;;;11.60;;
8640;SDS011;4358;42.100;25.222;2023-08-21T02:35:56;14.77;;;12.37;;
8640;SDS011;4358;42.100;25.222;2023-08-21T02:38:22;16.20;;;12.90;;
8640;SDS011;4358;42.100;25.222;2023-08-21T02:40:49;20.43;;;16.40;;
8640;SDS011;4358;42.100;25.222;2023-08-21T02:43:16;19.23;;;15.70;;
8640;SDS011;4358;42.100;25.222;2023-08-21T02:45:43;16.07;;;12.33;;
8640;SDS011;4358;42.100;25.222;2023-08-21T02:48:10;14.33;;;10.47;;
8640;SDS011;4358;42.100;25.222;2023-08-21T02:50:38;16.43;;;13.93;;
8640;SDS011;4358;42.100;25.222;2023-08-21T02:53:05;17.87;;;13.97;;
8640;SDS011;4358;42.100;25.222;2023-08-21T02:55:31;21.63;;;15.40;;
8640;SDS011;4358;42.100;25.222;2023-08-21T02:57:58;20.33;;;14.37;;
8640;SDS011;4358;42.100;25.222;2023-08-21T03:00:25;13.70;;;10.70;;
8640;SDS011;4358;42.100;25.222;2023-08-21T03:02:52;12.80;;;9.37;;
8640;SDS011;4358;42.100;25.222;2023-08-21T03:05:19;17.00;;;13.30;;
8640;SDS011;4358;42.100;25.222;2023-08-21T03:07:48;23.20;;;17.50;;
8640;SDS011;4358;42.100;25.222;2023-08-21T03:10:15;15.23;;;12.50;;
8640;SDS011;4358;42.100;25.222;2023-08-21T03:12:42;9.20;;;7.67;;
8640;SDS011;4358;42.100;25.222;2023-08-21T03:15:09;6.30;;;5.70;;
8640;SDS011;4358;42.100;25.222;2023-08-21T03:17:36;6.83;;;5.67;;
8640;SDS011;4358;42.100;25.222;2023-08-21T03:20:03;6.37;;;5.77;;
8640;SDS011;4358;42.100;25.222;2023-08-21T03:22:30;8.47;;;5.80;;
8640;SDS011;4358;42.100;25.222;2023-08-21T03:24:59;6.17;;;5.37;;
8640;SDS011;4358;42.100;25.222;2023-08-21T03:27:26;7.17;;;5.83;;
8640;SDS011;4358;42.100;25.222;2023-08-21T03:29:53;7.60;;;5.40;;
8640;SDS011;4358;42.100;25.222;2023-08-21T03:32:19;6.10;;;5.60;;
8640;SDS011;4358;42.100;25.222;2023-08-21T03:34:46;6.77;;;6.17;;
8640;SDS011;4358;42.100;25.222;2023-08-21T03:37:13;8.23;;;6.90;;
8640;SDS011;4358;42.100;25.222;2023-08-21T03:39:40;7.13;;;6.27;;
8640;SDS011;4358;42.100;25.222;2023-08-21T03:42:08;7.03;;;6.37;;
8640;SDS011;4358;42.100;25.222;2023-08-21T03:44:34;8.23;;;6.53;;
8640;SDS011;4358;42.100;25.222;2023-08-21T03:47:01;7.43;;;6.10;;
8640;SDS011;4358;42.100;25.222;2023-08-21T03:49:28;8.97;;;6.00;;
8640;SDS011;4358;42.100;25.222;2023-08-21T03:51:55;11.53;;;7.33;;
8640;SDS011;4358;42.100;25.222;2023-08-21T03:54:22;6.90;;;6.13;;
8640;SDS011;4358;42.100;25.222;2023-08-21T03:56:48;8.43;;;6.97;;
8640;SDS011;4358;42.100;25.222;2023-08-21T03:59:17;6.30;;;5.70;;
8640;SDS011;4358;42.100;25.222;2023-08-21T04:01:43;9.77;;;6.30;;
8640;SDS011;4358;42.100;25.222;2023-08-21T04:04:10;7.00;;;6.40;;
8640;SDS011;4358;42.100;25.222;2023-08-21T04:06:37;8.70;;;6.57;;
8640;SDS011;4358;42.100;25.222;2023-08-21T04:09:04;7.83;;;6.23;;
8640;SDS011;4358;42.100;25.222;2023-08-21T04:11:32;9.20;;;6.43;;
8640;SDS011;4358;42.100;25.222;2023-08-21T04:13:59;9.50;;;6.23;;
8640;SDS011;4358;42.100;25.222;2023-08-21T04:16:27;8.17;;;6.03;;
8640;SDS011;4358;42.100;25.222;2023-08-21T04:18:55;7.27;;;6.33;;
8640;SDS011;4358;42.100;25.222;2023-08-21T04:21:23;10.27;;;6.33;;
8640;SDS011;4358;42.100;25.222;2023-08-21T04:23:49;8.93;;;6.50;;
8640;SDS011;4358;42.100;25.222;2023-08-21T04:26:16;7.80;;;5.53;;
8640;SDS011;4358;42.100;25.222;2023-08-21T04:28:43;7.97;;;5.87;;
8640;SDS011;4358;42.100;25.222;2023-08-21T04:31:10;14.10;;;6.40;;
8640;SDS011;4358;42.100;25.222;2023-08-21T04:33:38;6.43;;;5.00;;
8640;SDS011;4358;42.100;25.222;2023-08-21T04:36:06;5.97;;;5.37;;
8640;SDS011;4358;42.100;25.222;2023-08-21T04:38:33;6.87;;;5.50;;
8640;SDS011;4358;42.100;25.222;2023-08-21T04:41:05;8.07;;;5.53;;
8640;SDS011;4358;42.100;25.222;2023-08-21T04:43:33;6.50;;;5.90;;
8640;SDS011;4358;42.100;25.222;2023-08-21T04:46:00;7.00;;;6.07;;
8640;SDS011;4358;42.100;25.222;2023-08-21T04:48:27;6.03;;;5.43;;
8640;SDS011;4358;42.100;25.222;2023-08-21T04:50:55;6.60;;;5.67;;
8640;SDS011;4358;42.100;25.222;2023-08-21T04:53:22;7.47;;;5.93;;
8640;SDS011;4358;42.100;25.222;2023-08-21T04:55:49;6.43;;;5.37;;
8640;SDS011;4358;42.100;25.222;2023-08-21T04:58:16;7.37;;;5.53;;
8640;SDS011;4358;42.100;25.222;2023-08-21T05:00:44;6.27;;;5.43;;
8640;SDS011;4358;42.100;25.222;2023-08-21T05:03:11;8.20;;;5.80;;
8640;SDS011;4358;42.100;25.222;2023-08-21T05:05:38;7.37;;;6.00;;
8640;SDS011;4358;42.100;25.222;2023-08-21T05:08:06;9.13;;;6.73;;
8640;SDS011;4358;42.100;25.222;2023-08-21T05:10:33;8.67;;;6.30;;
8640;SDS011;4358;42.100;25.222;2023-08-21T05:13:00;10.33;;;6.10;;
8640;SDS011;4358;42.100;25.222;2023-08-21T05:15:27;8.97;;;6.60;;
8640;SDS011;4358;42.100;25.222;2023-08-21T05:17:55;6.97;;;6.27;;
8640;SDS011;4358;42.100;25.222;2023-08-21T05:20:22;7.30;;;6.37;;
8640;SDS011;4358;42.100;25.222;2023-08-21T05:22:48;7.70;;;6.40;;
8640;SDS011;4358;42.100;25.222;2023-08-21T05:25:16;7.43;;;6.73;;
8640;SDS011;4358;42.100;25.222;2023-08-21T05:27:43;7.13;;;6.47;;
8640;SDS011;4358;42.100;25.222;2023-08-21T05:30:10;7.80;;;6.50;;
8640;SDS011;4358;42.100;25.222;2023-08-21T05:32:38;8.70;;;6.67;;
8640;SDS011;4358;42.100;25.222;2023-08-21T05:35:05;9.07;;;8.10;;
8640;SDS011;4358;42.100;25.222;2023-08-21T05:37:33;13.00;;;8.63;;
8640;SDS011;4358;42.100;25.222;2023-08-21T05:40:01;8.43;;;6.63;;
8640;SDS011;4358;42.100;25.222;2023-08-21T05:42:30;9.73;;;6.63;;
8640;SDS011;4358;42.100;25.222;2023-08-21T05:44:56;14.53;;;8.30;;
8640;SDS011;4358;42.100;25.222;2023-08-21T05:47:23;10.57;;;6.90;;
8640;SDS011;4358;42.100;25.222;2023-08-21T05:49:52;9.57;;;6.73;;
8640;SDS011;4358;42.100;25.222;2023-08-21T05:52:20;7.47;;;6.43;;
8640;SDS011;4358;42.100;25.222;2023-08-21T05:54:47;6.40;;;5.77;;
8640;SDS011;4358;42.100;25.222;2023-08-21T05:57:14;12.57;;;7.67;;
8640;SDS011;4358;42.100;25.222;2023-08-21T05:59:44;14.20;;;6.00;;
8640;SDS011;4358;42.100;25.222;2023-08-21T06:02:12;9.23;;;5.77;;
8640;SDS011;4358;42.100;25.222;2023-08-21T06:04:39;6.87;;;6.27;;
8640;SDS011;4358;42.100;25.222;2023-08-21T06:07:06;11.00;;;7.60;;
8640;SDS011;4358;42.100;25.222;2023-08-21T06:09:33;7.63;;;6.40;;
8640;SDS011;4358;42.100;25.222;2023-08-21T06:12:01;6.37;;;5.77;;
8640;SDS011;4358;42.100;25.222;2023-08-21T06:14:29;9.23;;;5.83;;
8640;SDS011;4358;42.100;25.222;2023-08-21T06:16:58;10.63;;;6.00;;
8640;SDS011;4358;42.100;25.222;2023-08-21T06:19:26;10.07;;;6.07;;
8640;SDS011;4358;42.100;25.222;2023-08-21T06:21:53;6.67;;;5.97;;
8640;SDS011;4358;42.100;25.222;2023-08-21T06:24:20;9.20;;;5.70;;
8640;SDS011;4358;42.100;25.222;2023-08-21T06:26:47;9.30;;;5.83;;
8640;SDS011;4358;42.100;25.222;2023-08-21T06:29:14;7.00;;;5.47;;
8640;SDS011;4358;42.100;25.222;2023-08-21T06:31:41;7.27;;;5.83;;
8640;SDS011;4358;42.100;25.222;2023-08-21T06:34:10;7.67;;;5.30;;
8640;SDS011;4358;42.100;25.222;2023-08-21T06:36:36;6.90;;;5.30;;
8640;SDS011;4358;42.100;25.222;2023-08-21T06:39:04;6.00;;;5.40;;
8640;SDS011;4358;42.100;25.222;2023-08-21T06:41:31;6.77;;;5.30;;
8640;SDS011;4358;42.100;25.222;2023-08-21T06:43:58;7.30;;;5.60;;
8640;SDS011;4358;42.100;25.222;2023-08-21T06:46:25;5.87;;;5.37;;
8640;SDS011;4358;42.100;25.222;2023-08-21T06:48:52;7.27;;;5.60;;
8640;SDS011;4358;42.100;25.222;2023-08-21T06:51:20;7.73;;;5.70;;
8640;SDS011;4358;42.100;25.222;2023-08-21T06:53:47;6.20;;;5.60;;
8640;SDS011;4358;42.100;25.222;2023-08-21T06:56:14;7.67;;;5.30;;
8640;SDS011;4358;42.100;25.222;2023-08-21T06:58:41;7.87;;;5.60;;
8640;SDS011;4358;42.100;25.222;2023-08-21T07:01:08;6.70;;;5.33;;
8640;SDS011;4358;42.100;25.222;2023-08-21T07:03:35;14.27;;;5.40;;
8640;SDS011;4358;42.100;25.222;2023-08-21T07:06:01;8.00;;;5.20;;
8640;SDS011;4358;42.100;25.222;2023-08-21T07:08:30;7.57;;;4.70;;
8640;SDS011;4358;42.100;25.222;2023-08-21T07:10:57;9.45;;;5.82;;
8640;SDS011;4358;42.100;25.222;2023-08-21T07:13:24;5.90;;;5.23;;
8640;SDS011;4358;42.100;25.222;2023-08-21T07:15:52;5.22;;;4.72;;
8640;SDS011;4358;42.100;25.222;2023-08-21T07:18:20;5.43;;;4.85;;
8640;SDS011;4358;42.100;25.222;2023-08-21T07:20:46;10.87;;;4.77;;
8640;SDS011;4358;42.100;25.222;2023-08-21T07:23:13;6.70;;;4.63;;
8640;SDS011;4358;42.100;25.222;2023-08-21T07:25:42;4.85;;;4.38;;
8640;SDS011;4358;42.100;25.222;2023-08-21T07:28:09;5.25;;;4.75;;
8640;SDS011;4358;42.100;25.222;2023-08-21T07:30:36;7.35;;;4.72;;
8640;SDS011;4358;42.100;25.222;2023-08-21T07:33:04;4.97;;;4.53;;
8640;SDS011;4358;42.100;25.222;2023-08-21T07:35:31;5.15;;;4.70;;
8640;SDS011;4358;42.100;25.222;2023-08-21T07:37:58;8.02;;;4.45;;
8640;SDS011;4358;42.100;25.222;2023-08-21T07:40:25;6.00;;;4.00;;
8640;SDS011;4358;42.100;25.222;2023-08-21T07:42:53;5.45;;;4.20;;
8640;SDS011;4358;42.100;25.222;2023-08-21T07:45:21;5.13;;;4.25;;
8640;SDS011;4358;42.100;25.222;2023-08-21T07:47:48;6.38;;;4.25;;
8640;SDS011;4358;42.100;25.222;2023-08-21T07:50:15;7.53;;;4.60;;
8640;SDS011;4358;42.100;25.222;2023-08-21T07:52:43;5.85;;;4.13;;
8640;SDS011;4358;42.100;25.222;2023-08-21T07:55:09;9.48;;;4.43;;
8640;SDS011;4358;42.100;25.222;2023-08-21T07:57:36;4.80;;;4.30;;
8640;SDS011;4358;42.100;25.222;2023-08-21T08:00:05;4.55;;;4.15;;
8640;SDS011;4358;42.100;25.222;2023-08-21T08:02:33;5.97;;;4.32;;
8640;SDS011;4358;42.100;25.222;2023-08-21T08:05:00;5.13;;;4.63;;
8640;SDS011;4358;42.100;25.222;2023-08-21T08:07:28;12.45;;;4.57;;
8640;SDS011;4358;42.100;25.222;2023-08-21T08:09:55;7.88;;;4.30;;
8640;SDS011;4358;42.100;25.222;2023-08-21T08:12:21;5.80;;;4.38;;
8640;SDS011;4358;42.100;25.222;2023-08-21T08:14:48;6.28;;;4.68;;
8640;SDS011;4358;42.100;25.222;2023-08-21T08:17:16;6.30;;;4.20;;
8640;SDS011;4358;42.100;25.222;2023-08-21T08:19:43;6.90;;;4.60;;
8640;SDS011;4358;42.100;25.222;2023-08-21T08:22:10;5.13;;;4.60;;
8640;SDS011;4358;42.100;25.222;2023-08-21T08:24:37;5.88;;;4.50;;
8640;SDS011;4358;42.100;25.222;2023-08-21T08:27:04;5.03;;;4.57;;
8640;SDS011;4358;42.100;25.222;2023-08-21T08:29:31;6.78;;;4.80;;
8640;SDS011;4358;42.100;25.222;2023-08-21T08:31:58;4.78;;;4.38;;
8640;SDS011;4358;42.100;25.222;2023-08-21T08:34:26;8.27;;;4.68;;
8640;SDS011;4358;42.100;25.222;2023-08-21T08:36:53;5.22;;;4.80;;
8640;SDS011;4358;42.100;25.222;2023-08-21T08:39:20;10.23;;;5.35;;
8640;SDS011;4358;42.100;25.222;2023-08-21T08:41:48;5.82;;;4.25;;
8640;SDS011;4358;42.100;25.222;2023-08-21T08:44:20;7.05;;;4.50;;
8640;SDS011;4358;42.100;25.222;2023-08-21T08:46:50;4.97;;;4.38;;
8640;SDS011;4358;42.100;25.222;2023-08-21T08:49:18;6.22;;;5.28;;
8640;SDS011;4358;42.100;25.222;2023-08-21T08:51:47;5.50;;;4.65;;
8640;SDS011;4358;42.100;25.222;2023-08-21T08:54:16;4.97;;;4.55;;
8640;SDS011;4358;42.100;25.222;2023-08-21T08:56:43;4.80;;;4.25;;
8640;SDS011;4358;42.100;25.222;2023-08-21T08:59:10;7.57;;;5.15;;
8640;SDS011;4358;42.100;25.222;2023-08-21T09:01:39;9.52;;;4.72;;
8640;SDS011;4358;42.100;25.222;2023-08-21T09:04:06;5.88;;;4.82;;
8640;SDS011;4358;42.100;25.222;2023-08-21T09:06:34;8.23;;;4.40;;
8640;SDS011;4358;42.100;25.222;2023-08-21T09:09:02;6.43;;;4.18;;
8640;SDS011;4358;42.100;25.222;2023-08-21T09:11:29;9.10;;;4.18;;
8640;SDS011;4358;42.100;25.222;2023-08-21T09:13:58;5.05;;;3.30;;
8640;SDS011;4358;42.100;25.222;2023-08-21T09:16:25;4.20;;;3.70;;
8640;SDS011;4358;42.100;25.222;2023-08-21T09:18:52;3.70;;;3.40;;
8640;SDS011;4358;42.100;25.222;2023-08-21T09:21:22;4.15;;;3.75;;
8640;SDS011;4358;42.100;25.222;2023-08-21T09:23:55;4.22;;;3.70;;
8640;SDS011;4358;42.100;25.222;2023-08-21T09:26:25;3.78;;;3.47;;
8640;SDS011;4358;42.100;25.222;2023-08-21T09:28:52;4.50;;;3.92;;
8640;SDS011;4358;42.100;25.222;2023-08-21T09:31:21;7.95;;;3.80;;
8640;SDS011;4358;42.100;25.222;2023-08-21T09:33:54;3.30;;;3.00;;
8640;SDS011;4358;42.100;25.222;2023-08-21T09:36:22;3.58;;;2.80;;
8640;SDS011;4358;42.100;25.222;2023-08-21T09:38:50;5.32;;;2.95;;
8640;SDS011;4358;42.100;25.222;2023-08-21T09:41:19;3.95;;;2.90;;
8640;SDS011;4358;42.100;25.222;2023-08-21T09:43:48;4.18;;;2.90;;
8640;SDS011;4358;42.100;25.222;2023-08-21T09:46:15;3.40;;;3.10;;
8640;SDS011;4358;42.100;25.222;2023-08-21T09:48:43;4.25;;;2.83;;
8640;SDS011;4358;42.100;25.222;2023-08-21T09:51:11;3.83;;;3.10;;
8640;SDS011;4358;42.100;25.222;2023-08-21T09:53:38;4.90;;;2.90;;
8640;SDS011;4358;42.100;25.222;2023-08-21T09:56:06;7.07;;;3.03;;
8640;SDS011;4358;42.100;25.222;2023-08-21T09:58:34;4.72;;;2.70;;
8640;SDS011;4358;42.100;25.222;2023-08-21T10:01:04;4.20;;;3.17;;
8640;SDS011;4358;42.100;25.222;2023-08-21T10:03:36;5.70;;;3.15;;
8640;SDS011;4358;42.100;25.222;2023-08-21T10:06:05;4.90;;;3.10;;
8640;SDS011;4358;42.100;25.222;2023-08-21T10:08:33;3.42;;;2.70;;
8640;SDS011;4358;42.100;25.222;2023-08-21T10:11:05;3.83;;;3.10;;
8640;SDS011;4358;42.100;25.222;2023-08-21T10:13:33;5.80;;;2.95;;
8640;SDS011;4358;42.100;25.222;2023-08-21T10:16:04;4.97;;;2.63;;
8640;SDS011;4358;42.100;25.222;2023-08-21T10:18:31;6.07;;;2.72;;
8640;SDS011;4358;42.100;25.222;2023-08-21T10:21:12;2.92;;;2.63;;
8640;SDS011;4358;42.100;25.222;2023-08-21T10:23:40;4.00;;;2.75;;
8640;SDS011;4358;42.100;25.222;2023-08-21T10:26:07;3.00;;;2.70;;
8640;SDS011;4358;42.100;25.222;2023-08-21T10:28:48;5.50;;;2.70;;
8640;SDS011;4358;42.100;25.222;2023-08-21T10:31:27;3.05;;;2.67;;
8640;SDS011;4358;42.100;25.222;2023-08-21T10:33:56;4.65;;;2.90;;
8640;SDS011;4358;42.100;25.222;2023-08-21T10:39:31;4.55;;;3.03;;
8640;SDS011;4358;42.100;25.222;2023-08-21T10:42:01;3.30;;;3.05;;
8640;SDS011;4358;42.100;25.222;2023-08-21T10:44:36;3.05;;;2.70;;
8640;SDS011;4358;42.100;25.222;2023-08-21T10:47:18;4.63;;;2.72;;
8640;SDS011;4358;42.100;25.222;2023-08-21T10:49:49;2.90;;;2.42;;
8640;SDS011;4358;42.100;25.222;2023-08-21T10:52:21;2.70;;;2.50;;
8640;SDS011;4358;42.100;25.222;2023-08-21T10:54:50;2.75;;;2.35;;
8640;SDS011;4358;42.100;25.222;2023-08-21T10:57:18;3.00;;;2.63;;
8640;SDS011;4358;42.100;25.222;2023-08-21T10:59:49;7.15;;;3.00;;
8640;SDS011;4358;42.100;25.222;2023-08-21T11:02:18;4.57;;;2.60;;
8640;SDS011;4358;42.100;25.222;2023-08-21T11:04:45;5.82;;;3.20;;
8640;SDS011;4358;42.100;25.222;2023-08-21T11:07:12;3.42;;;2.78;;
8640;SDS011;4358;42.100;25.222;2023-08-21T11:09:39;3.70;;;2.33;;
8640;SDS011;4358;42.100;25.222;2023-08-21T11:12:07;6.22;;;2.88;;
8640;SDS011;4358;42.100;25.222;2023-08-21T11:14:35;4.55;;;2.92;;
8640;SDS011;4358;42.100;25.222;2023-08-21T11:17:02;3.15;;;2.55;;
8640;SDS011;4358;42.100;25.222;2023-08-21T11:19:31;2.78;;;2.55;;
8640;SDS011;4358;42.100;25.222;2023-08-21T11:21:58;4.22;;;2.50;;
8640;SDS011;4358;42.100;25.222;2023-08-21T11:24:41;6.00;;;2.78;;
8640;SDS011;4358;42.100;25.222;2023-08-21T11:27:10;4.85;;;2.83;;
8640;SDS011;4358;42.100;25.222;2023-08-21T11:29:38;3.58;;;2.53;;
8640;SDS011;4358;42.100;25.222;2023-08-21T11:32:09;2.85;;;2.60;;
8640;SDS011;4358;42.100;25.222;2023-08-21T11:34:38;5.75;;;2.80;;
8640;SDS011;4358;42.100;25.222;2023-08-21T11:37:05;3.72;;;2.70;;
8640;SDS011;4358;42.100;25.222;2023-08-21T11:39:39;6.07;;;3.08;;
8640;SDS011;4358;42.100;25.222;2023-08-21T11:42:10;5.13;;;3.10;;
8640;SDS011;4358;42.100;25.222;2023-08-21T11:44:41;3.47;;;3.13;;
8640;SDS011;4358;42.100;25.222;2023-08-21T11:47:09;5.00;;;2.60;;
8640;SDS011;4358;42.100;25.222;2023-08-21T11:49:37;5.03;;;2.88;;
8640;SDS011;4358;42.100;25.222;2023-08-21T11:52:06;3.60;;;3.10;;
8640;SDS011;4358;42.100;25.222;2023-08-21T11:54:34;3.05;;;2.75;;
8640;SDS011;4358;42.100;25.222;2023-08-21T11:57:03;3.38;;;3.10;;
8640;SDS011;4358;42.100;25.222;2023-08-21T11:59:31;5.03;;;3.22;;
8640;SDS011;4358;42.100;25.222;2023-08-21T12:01:58;4.03;;;3.05;;
8640;SDS011;4358;42.100;25.222;2023-08-21T12:04:26;3.13;;;2.83;;
8640;SDS011;4358;42.100;25.222;2023-08-21T12:06:54;2.95;;;2.75;;
8640;SDS011;4358;42.100;25.222;2023-08-21T12:09:22;3.42;;;2.88;;
8640;SDS011;4358;42.100;25.222;2023-08-21T12:11:49;5.18;;;2.85;;
8640;SDS011;4358;42.100;25.222;2023-08-21T12:14:16;3.75;;;3.05;;
8640;SDS011;4358;42.100;25.222;2023-08-21T12:16:42;6.15;;;3.20;;
8640;SDS011;4358;42.100;25.222;2023-08-21T12:19:10;4.55;;;3.00;;
8640;SDS011;4358;42.100;25.222;2023-08-21T12:21:37;5.38;;;2.90;;
8640;SDS011;4358;42.100;25.222;2023-08-21T12:24:06;3.38;;;3.08;;
8640;SDS011;4358;42.100;25.222;2023-08-21T12:26:33;4.55;;;3.00;;
8640;SDS011;4358;42.100;25.222;2023-08-21T12:29:00;4.10;;;2.97;;
8640;SDS011;4358;42.100;25.222;2023-08-21T12:31:27;7.85;;;3.30;;
8640;SDS011;4358;42.100;25.222;2023-08-21T12:33:55;4.47;;;2.80;;
8640;SDS011;4358;42.100;25.222;2023-08-21T12:36:22;7.32;;;3.05;;
8640;SDS011;4358;42.100;25.222;2023-08-21T12:38:49;6.05;;;2.90;;
8640;SDS011;4358;42.100;25.222;2023-08-21T12:41:17;4.38;;;3.10;;
8640;SDS011;4358;42.100;25.222;2023-08-21T12:43:44;3.33;;;3.03;;
8640;SDS011;4358;42.100;25.222;2023-08-21T12:46:11;3.47;;;2.70;;
8640;SDS011;4358;42.100;25.222;2023-08-21T12:48:38;2.92;;;2.70;;
8640;SDS011;4358;42.100;25.222;2023-08-21T12:51:04;4.90;;;3.20;;
8640;SDS011;4358;42.100;25.222;2023-08-21T12:53:31;7.25;;;3.13;;
8640;SDS011;4358;42.100;25.222;2023-08-21T12:55:58;4.55;;;2.90;;
8640;SDS011;4358;42.100;25.222;2023-08-21T12:58:26;3.30;;;2.90;;
8640;SDS011;4358;42.100;25.222;2023-08-21T13:00:55;3.60;;;3.05;;
8640;SDS011;4358;42.100;25.222;2023-08-21T13:03:22;7.00;;;3.28;;
8640;SDS011;4358;42.100;25.222;2023-08-21T13:05:49;5.82;;;3.22;;
8640;SDS011;4358;42.100;25.222;2023-08-21T13:08:15;3.88;;;3.00;;
8640;SDS011;4358;42.100;25.222;2023-08-21T13:10:42;5.00;;;2.80;;
8640;SDS011;4358;42.100;25.222;2023-08-21T13:13:09;3.92;;;3.00;;
8640;SDS011;4358;42.100;25.222;2023-08-21T13:15:37;3.30;;;2.97;;
8640;SDS011;4358;42.100;25.222;2023-08-21T13:18:04;3.97;;;3.35;;
8640;SDS011;4358;42.100;25.222;2023-08-21T13:20:31;5.70;;;3.80;;
8640;SDS011;4358;42.100;25.222;2023-08-21T13:22:58;3.75;;;3.30;;
8640;SDS011;4358;42.100;25.222;2023-08-21T13:25:25;3.67;;;3.22;;
8640;SDS011;4358;42.100;25.222;2023-08-21T13:27:51;4.43;;;3.42;;
8640;SDS011;4358;42.100;25.222;2023-08-21T13:30:19;4.15;;;2.92;;
8640;SDS011;4358;42.100;25.222;2023-08-21T13:32:49;4.30;;;3.30;;
8640;SDS011;4358;42.100;25.222;2023-08-21T13:35:15;5.93;;;3.60;;
8640;SDS011;4358;42.100;25.222;2023-08-21T13:37:43;10.93;;;3.78;;
8640;SDS011;4358;42.100;25.222;2023-08-21T13:40:09;5.25;;;3.40;;
8640;SDS011;4358;42.100;25.222;2023-08-21T13:42:39;4.78;;;3.22;;
8640;SDS011;4358;42.100;25.222;2023-08-21T13:45:07;7.13;;;3.30;;
8640;SDS011;4358;42.100;25.222;2023-08-21T13:47:36;4.57;;;3.58;;
8640;SDS011;4358;42.100;25.222;2023-08-21T13:50:05;6.45;;;3.40;;
8640;SDS011;4358;42.100;25.222;2023-08-21T13:52:33;3.75;;;3.45;;
8640;SDS011;4358;42.100;25.222;2023-08-21T13:55:01;6.43;;;3.30;;
8640;SDS011;4358;42.100;25.222;2023-08-21T13:57:28;5.28;;;3.47;;
8640;SDS011;4358;42.100;25.222;2023-08-21T13:59:55;3.92;;;3.22;;
8640;SDS011;4358;42.100;25.222;2023-08-21T14:02:22;4.88;;;3.60;;
8640;SDS011;4358;42.100;25.222;2023-08-21T14:04:49;6.45;;;3.35;;
8640;SDS011;4358;42.100;25.222;2023-08-21T14:07:17;8.40;;;3.65;;
8640;SDS011;4358;42.100;25.222;2023-08-21T14:09:44;7.82;;;3.10;;
8640;SDS011;4358;42.100;25.222;2023-08-21T14:12:11;5.93;;;3.65;;
8640;SDS011;4358;42.100;25.222;2023-08-21T14:14:38;4.22;;;3.60;;
8640;SDS011;4358;42.100;25.222;2023-08-21T14:17:05;4.07;;;3.20;;
8640;SDS011;4358;42.100;25.222;2023-08-21T14:19:31;4.72;;;3.63;;
8640;SDS011;4358;42.100;25.222;2023-08-21T14:21:58;3.60;;;3.30;;
8640;SDS011;4358;42.100;25.222;2023-08-21T14:24:26;5.20;;;3.35;;
8640;SDS011;4358;42.100;25.222;2023-08-21T14:26:53;5.90;;;3.63;;
8640;SDS011;4358;42.100;25.222;2023-08-21T14:29:20;6.15;;;3.85;;
8640;SDS011;4358;42.100;25.222;2023-08-21T14:31:47;3.83;;;3.42;;
8640;SDS011;4358;42.100;25.222;2023-08-21T14:34:14;5.93;;;3.42;;
8640;SDS011;4358;42.100;25.222;2023-08-21T14:36:41;5.22;;;3.60;;
8640;SDS011;4358;42.100;25.222;2023-08-21T14:39:08;6.53;;;3.55;;
8640;SDS011;4358;42.100;25.222;2023-08-21T14:41:37;8.02;;;3.70;;
8640;SDS011;4358;42.100;25.222;2023-08-21T14:44:04;3.83;;;3.30;;
8640;SDS011;4358;42.100;25.222;2023-08-21T14:46:31;3.63;;;3.30;;
8640;SDS011;4358;42.100;25.222;2023-08-21T14:48:58;4.72;;;3.40;;
8640;SDS011;4358;42.100;25.222;2023-08-21T14:51:25;4.53;;;3.20;;
8640;SDS011;4358;42.100;25.222;2023-08-21T14:53:52;4.00;;;3.60;;
8640;SDS011;4358;42.100;25.222;2023-08-21T14:56:20;5.38;;;3.42;;
8640;SDS011;4358;42.100;25.222;2023-08-21T14:58:48;5.75;;;3.90;;
8640;SDS011;4358;42.100;25.222;2023-08-21T15:01:15;5.07;;;3.63;;
8640;SDS011;4358;42.100;25.222;2023-08-21T15:03:42;4.88;;;3.67;;